Time;durP1;ratioP1;P1;durP2;ratioP2;P2;SDS_P1;SDS_P2;PMS_P1;PMS_P2;Temp;Humidity;BMP_temperature;BMP_pressure;BME280_temperature;BME280_humidity;BME280_pressure;Samples;Min_cycle;Max_cycle;Signal;HPM_P1;HPM_P2
2021/03/26 00:02:43;;;;;;;24.95;13.88;;;9.20;99.90;;;;;;6733910;88;20239;-79
2021/03/26 00:12:44;;;;;;;25.98;14.73;;;9.00;99.90;;;;;;6732297;88;20808;-78
2021/03/26 00:22:45;;;;;;;29.60;14.40;;;8.80;99.90;;;;;;6729792;88;20216;-79
2021/03/26 00:32:45;;;;;;;24.27;11.98;;;8.60;99.90;;;;;;6735223;88;20298;-79
2021/03/26 00:42:46;;;;;;;26.33;13.62;;;8.90;99.90;;;;;;6732429;88;20204;-79
2021/03/26 00:52:47;;;;;;;24.60;13.27;;;9.10;99.90;;;;;;6740200;88;20201;-80
2021/03/26 01:02:48;;;;;;;26.98;14.18;;;8.80;99.90;;;;;;6727675;88;20202;-79
2021/03/26 01:12:49;;;;;;;29.55;14.35;;;8.60;99.90;;;;;;6733306;88;20199;-79
2021/03/26 01:22:50;;;;;;;23.92;12.45;;;8.60;99.90;;;;;;6738137;88;20194;-80
2021/03/26 01:32:52;;;;;;;26.92;12.88;;;8.60;99.90;;;;;;6742417;88;20668;-80
2021/03/26 01:43:02;;;;;;;27.65;12.98;;;8.50;99.90;;;;;;6741501;88;20194;-80
2021/03/26 01:53:04;;;;;;;21.30;12.35;;;8.30;99.90;;;;;;6743143;88;20236;-78
2021/03/26 02:03:09;;;;;;;21.62;11.60;;;8.30;99.90;;;;;;6737815;88;20244;-80
2021/03/26 02:13:24;;;;;;;25.00;12.53;;;8.30;99.90;;;;;;6743112;88;20808;-77
2021/03/26 02:23:27;;;;;;;23.35;13.55;;;8.30;99.90;;;;;;6739019;88;20209;-78
2021/03/26 02:33:28;;;;;;;22.35;12.95;;;8.40;99.90;;;;;;6738807;88;20209;-80
2021/03/26 02:43:56;;;;;;;24.55;12.45;;;8.40;99.90;;;;;;6737901;88;20189;-80
2021/03/26 02:54:13;;;;;;;28.27;13.38;;;8.40;99.90;;;;;;6743474;88;20180;-78
2021/03/26 03:04:26;;;;;;;25.37;13.48;;;8.40;99.90;;;;;;6743461;88;20242;-80
2021/03/26 03:14:33;;;;;;;27.20;13.88;;;8.30;99.90;;;;;;6738389;88;20186;-78
2021/03/26 03:24:38;;;;;;;29.45;14.07;;;8.10;99.90;;;;;;6698024;89;20228;-77
2021/03/26 03:34:44;;;;;;;30.80;15.03;;;7.90;99.90;;;;;;6688448;89;20190;-77
2021/03/26 03:44:57;;;;;;;35.70;16.53;;;7.90;99.90;;;;;;6691749;88;20169;-78
2021/03/26 03:55:07;;;;;;;39.28;18.05;;;8.10;99.90;;;;;;6696642;88;20197;-79
2021/03/26 04:05:15;;;;;;;31.87;15.63;;;8.30;99.90;;;;;;6705540;88;20223;-78
2021/03/26 04:15:21;;;;;;;28.58;15.07;;;8.10;99.90;;;;;;6710112;88;20334;-78
2021/03/26 04:25:32;;;;;;;32.13;15.40;;;7.80;99.90;;;;;;6723742;88;20193;-79
2021/03/26 04:35:33;;;;;;;27.42;15.63;;;7.60;99.90;;;;;;6745339;88;20206;-79
2021/03/26 04:45:52;;;;;;;30.33;14.95;;;7.40;99.90;;;;;;6746451;88;20259;-81
2021/03/26 04:55:58;;;;;;;35.33;16.15;;;7.20;99.90;;;;;;6730399;88;20169;-78
2021/03/26 05:06:07;;;;;;;33.75;16.33;;;7.00;99.90;;;;;;6730454;88;20203;-78
2021/03/26 05:16:15;;;;;;;32.22;16.35;;;6.80;99.90;;;;;;6708478;88;20650;-77
2021/03/26 05:26:17;;;;;;;33.88;17.10;;;6.60;99.90;;;;;;6704695;88;20233;-77
2021/03/26 05:36:25;;;;;;;38.67;18.00;;;6.70;99.90;;;;;;6705402;88;20190;-78
2021/03/26 05:46:44;;;;;;;41.63;18.15;;;6.80;99.90;;;;;;6709061;88;20211;-78
2021/03/26 05:56:57;;;;;;;41.37;18.70;;;6.90;99.90;;;;;;6708785;88;20205;-77
2021/03/26 06:07:26;;;;;;;42.65;20.23;;;7.10;99.90;;;;;;6711162;88;20318;-78
2021/03/26 06:17:54;;;;;;;40.63;19.55;;;7.50;99.90;;;;;;6731720;88;20214;-78
2021/03/26 06:28:27;;;;;;;44.28;20.02;;;7.80;99.90;;;;;;6728471;88;20255;-78
2021/03/26 06:38:37;;;;;;;38.85;19.80;;;8.10;99.90;;;;;;6731037;88;20186;-79
2021/03/26 06:48:57;;;;;;;38.75;18.58;;;8.50;99.90;;;;;;6731787;88;20211;-79
2021/03/26 06:59:00;;;;;;;36.95;18.20;;;8.90;99.90;;;;;;6737833;88;20179;-79
2021/03/26 07:09:22;;;;;;;42.72;18.92;;;9.40;99.90;;;;;;6744039;88;20178;-80
2021/03/26 07:20:07;;;;;;;37.65;17.02;;;9.70;99.90;;;;;;6745471;88;20195;-80
2021/03/26 07:30:33;;;;;;;34.35;17.00;;;10.10;99.90;;;;;;6714240;88;20251;-80
2021/03/26 07:40:52;;;;;;;34.05;17.42;;;10.60;99.90;;;;;;6744045;88;20229;-81
2021/03/26 07:51:31;;;;;;;30.05;15.25;;;11.10;99.90;;;;;;6746476;88;20173;-79
2021/03/26 08:02:03;;;;;;;31.77;16.50;;;11.70;99.90;;;;;;6737146;88;20216;-79
2021/03/26 08:22:52;;;;;;;30.08;14.93;;;12.20;99.90;;;;;;6809885;86;20837;-78
2021/03/26 08:32:55;;;;;;;29.05;15.18;;;12.20;99.90;;;;;;6782673;87;20187;-80
2021/03/26 08:42:56;;;;;;;30.20;15.45;;;12.70;99.90;;;;;;6782067;87;20625;-81
2021/03/26 08:53:09;;;;;;;28.48;15.00;;;13.10;99.90;;;;;;6782703;87;20203;-79
2021/03/26 09:03:40;;;;;;;26.50;14.05;;;13.50;99.90;;;;;;6788807;87;20200;-79
2021/03/26 09:14:30;;;;;;;19.70;11.43;;;14.10;99.90;;;;;;6789588;87;21030;-80
2021/03/26 09:24:39;;;;;;;15.07;8.95;;;15.10;99.90;;;;;;6711003;88;20280;-81
2021/03/26 09:34:46;;;;;;;14.00;6.95;;;16.10;99.90;;;;;;6767735;87;20215;-81
2021/03/26 09:44:56;;;;;;;9.98;5.50;;;16.50;98.40;;;;;;6789395;87;20211;-80
2021/03/26 09:55:26;;;;;;;8.23;3.80;;;16.80;97.50;;;;;;6773191;88;20192;-79
2021/03/26 10:05:32;;;;;;;8.93;3.50;;;17.00;95.00;;;;;;6770561;87;20635;-80
2021/03/26 10:15:56;;;;;;;4.90;3.05;;;17.60;91.50;;;;;;6769035;87;20192;-78
2021/03/26 10:26:15;;;;;;;6.30;3.40;;;17.90;91.00;;;;;;6775117;87;20254;-81
2021/03/26 10:36:29;;;;;;;5.35;2.90;;;17.30;89.50;;;;;;6771430;87;20325;-77
2021/03/26 11:04:15;;;;;;;5.20;2.78;;;17.80;81.80;;;;;;6783331;86;20326;-77
2021/03/26 11:14:26;;;;;;;5.00;2.17;;;17.90;83.40;;;;;;6764500;87;20757;-75
2021/03/26 11:24:38;;;;;;;6.50;2.90;;;18.80;78.10;;;;;;6761173;87;20273;-79
2021/03/26 11:35:01;;;;;;;5.35;2.83;;;18.60;76.80;;;;;;6789041;87;20203;-79
2021/03/26 11:45:28;;;;;;;5.25;3.00;;;18.50;76.20;;;;;;6787755;87;20204;-79
2021/03/26 11:55:35;;;;;;;5.15;2.50;;;18.70;75.10;;;;;;6791595;87;20203;-80
2021/03/26 12:05:57;;;;;;;6.90;2.30;;;17.60;76.10;;;;;;6756993;88;20206;-79
2021/03/26 12:16:21;;;;;;;5.47;2.72;;;17.50;77.40;;;;;;6761407;88;20220;-78
2021/03/26 12:26:27;;;;;;;6.80;2.60;;;18.20;73.60;;;;;;6761428;88;20297;-78
2021/03/26 12:36:38;;;;;;;4.97;2.80;;;18.30;73.60;;;;;;6751535;87;20205;-75
2021/03/26 12:47:07;;;;;;;4.60;2.55;;;18.00;73.70;;;;;;6755682;87;20258;-78
2021/03/26 12:57:26;;;;;;;5.32;2.58;;;17.80;75.40;;;;;;6750725;88;20201;-78
2021/03/26 13:07:41;;;;;;;5.28;2.33;;;18.50;72.60;;;;;;6735797;88;20700;-77
2021/03/26 13:17:41;;;;;;;6.17;2.63;;;18.20;71.80;;;;;;6736829;88;20242;-76
2021/03/26 13:27:54;;;;;;;6.12;2.78;;;17.60;73.00;;;;;;6737116;88;20182;-77
2021/03/26 13:38:03;;;;;;;5.22;2.50;;;17.70;73.00;;;;;;6736723;88;20697;-77
2021/03/26 13:48:16;;;;;;;5.87;2.90;;;17.50;73.60;;;;;;6736530;88;20194;-77
2021/03/26 13:58:30;;;;;;;5.30;2.40;;;18.10;72.30;;;;;;6732903;76;20176;-76
2021/03/26 14:08:43;;;;;;;5.35;2.12;;;17.90;72.90;;;;;;6745180;88;20254;-75
2021/03/26 14:18:49;;;;;;;4.80;2.10;;;17.10;75.30;;;;;;6742809;88;20676;-75
2021/03/26 14:28:58;;;;;;;5.22;2.20;;;17.40;74.60;;;;;;6749292;88;20355;-75
2021/03/26 14:39:07;;;;;;;3.40;1.95;;;16.70;75.50;;;;;;6750442;88;20179;-74
2021/03/26 14:49:18;;;;;;;3.00;1.60;;;17.30;71.30;;;;;;6746239;88;20204;-76
2021/03/26 14:59:23;;;;;;;3.33;1.40;;;17.80;70.80;;;;;;6744596;87;20648;-75
2021/03/26 15:09:39;;;;;;;4.85;1.45;;;16.80;72.10;;;;;;6746548;87;20189;-75
2021/03/26 15:19:45;;;;;;;3.28;1.30;;;16.60;73.20;;;;;;6744280;87;20199;-75
2021/03/26 15:30:13;;;;;;;5.55;1.40;;;16.80;74.10;;;;;;6743567;87;20704;-75
2021/03/26 15:40:19;;;;;;;4.00;1.60;;;16.90;72.50;;;;;;6748909;88;20251;-76
2021/03/26 15:50:27;;;;;;;2.35;1.20;;;16.60;74.10;;;;;;6750195;88;20766;-75
2021/03/26 16:01:02;;;;;;;2.50;0.90;;;16.40;74.70;;;;;;6749977;87;20302;-75
2021/03/26 16:11:21;;;;;;;3.12;1.00;;;16.10;74.50;;;;;;6748196;87;20212;-75
2021/03/26 16:21:46;;;;;;;3.25;1.20;;;16.70;73.70;;;;;;6748769;88;20221;-74
2021/03/26 16:31:56;;;;;;;2.28;1.00;;;16.80;73.70;;;;;;6751485;87;20181;-74
2021/03/26 16:42:05;;;;;;;2.55;1.08;;;16.50;74.40;;;;;;6748605;87;20283;-75
2021/03/26 16:52:21;;;;;;;4.00;1.10;;;16.40;73.10;;;;;;6750881;87;20357;-75
2021/03/26 17:02:26;;;;;;;3.20;0.98;;;16.10;73.10;;;;;;6745738;87;20197;-75
2021/03/26 17:13:06;;;;;;;2.73;1.10;;;15.80;75.00;;;;;;6746647;87;20230;-74
2021/03/26 17:23:31;;;;;;;3.40;1.20;;;15.40;74.50;;;;;;6741513;87;20706;-76
2021/03/26 17:33:53;;;;;;;3.58;1.10;;;15.00;74.70;;;;;;6749658;87;20245;-74
2021/03/26 17:44:13;;;;;;;3.15;1.10;;;14.70;75.80;;;;;;6749087;88;20236;-75
2021/03/26 17:55:01;;;;;;;4.68;1.20;;;14.70;75.70;;;;;;6743670;87;20201;-74
2021/03/26 18:05:27;;;;;;;3.17;0.90;;;14.60;76.80;;;;;;6747140;87;20308;-74
2021/03/26 18:15:45;;;;;;;2.27;1.00;;;14.50;77.00;;;;;;6751462;87;20180;-77
2021/03/26 18:26:12;;;;;;;3.70;1.00;;;14.20;78.20;;;;;;6755441;87;20221;-76
2021/03/26 18:36:24;;;;;;;2.40;1.10;;;14.00;79.20;;;;;;6748818;87;20230;-78
2021/03/26 18:46:31;;;;;;;3.55;1.20;;;13.90;79.70;;;;;;6764164;87;20196;-76
2021/03/26 18:56:40;;;;;;;3.30;1.15;;;13.90;80.70;;;;;;6756068;87;20404;-75
2021/03/26 19:06:58;;;;;;;3.30;1.12;;;13.80;81.30;;;;;;6755464;87;20201;-75
2021/03/26 19:17:17;;;;;;;3.35;1.50;;;13.70;81.20;;;;;;6755539;87;20206;-75
2021/03/26 19:27:55;;;;;;;3.60;1.40;;;13.60;82.10;;;;;;6749134;88;20886;-75
2021/03/26 19:38:16;;;;;;;3.40;1.60;;;13.50;82.60;;;;;;6746916;87;20195;-75
2021/03/26 19:48:25;;;;;;;3.00;1.30;;;13.30;84.00;;;;;;6748013;87;20301;-76
2021/03/26 19:58:54;;;;;;;4.43;1.60;;;13.30;85.80;;;;;;6738301;77;20188;-77
2021/03/26 20:08:54;;;;;;;5.40;2.83;;;13.10;86.40;;;;;;6727234;88;20214;-79
2021/03/26 20:19:33;;;;;;;4.75;2.00;;;13.10;88.00;;;;;;6718661;88;20177;-78
2021/03/26 20:30:05;;;;;;;4.28;2.10;;;13.00;89.20;;;;;;6733501;88;20186;-78
2021/03/26 20:40:34;;;;;;;4.15;2.00;;;13.00;90.30;;;;;;6719895;88;20215;-77
2021/03/26 20:50:58;;;;;;;6.80;2.28;;;12.90;90.50;;;;;;6719824;88;20211;-77
2021/03/26 21:01:15;;;;;;;6.30;1.90;;;12.70;91.50;;;;;;6722626;88;20268;-78
2021/03/26 21:11:38;;;;;;;5.53;2.37;;;12.60;92.20;;;;;;6719822;88;20207;-78
2021/03/26 21:22:12;;;;;;;4.75;2.65;;;12.60;92.80;;;;;;6721667;88;20225;-77
2021/03/26 21:32:19;;;;;;;6.15;2.70;;;12.60;93.40;;;;;;6704563;88;20251;-75
2021/03/26 21:42:35;;;;;;;5.35;2.70;;;12.50;93.70;;;;;;6702441;88;20190;-78
2021/03/26 21:53:04;;;;;;;4.90;2.60;;;12.30;94.80;;;;;;6709412;88;20738;-77
2021/03/26 22:03:38;;;;;;;4.87;2.55;;;12.10;95.30;;;;;;6704052;88;20219;-77
2021/03/26 22:13:46;;;;;;;5.10;2.30;;;12.00;96.10;;;;;;6706186;88;20207;-77
2021/03/26 22:23:58;;;;;;;7.15;2.72;;;11.90;96.80;;;;;;6701608;88;20706;-76
2021/03/26 22:34:27;;;;;;;5.40;2.92;;;11.80;97.50;;;;;;6702191;88;20606;-77
2021/03/26 22:44:31;;;;;;;6.72;2.10;;;11.80;98.00;;;;;;6701660;88;20804;-76
2021/03/26 22:54:37;;;;;;;6.60;2.15;;;11.60;98.40;;;;;;6711053;88;20613;-77
2021/03/26 23:04:49;;;;;;;4.50;2.40;;;11.50;99.40;;;;;;6720279;88;20197;-77
2021/03/26 23:14:54;;;;;;;5.18;2.58;;;11.40;99.90;;;;;;6724547;88;20182;-77
2021/03/26 23:25:03;;;;;;;5.03;2.40;;;11.40;99.90;;;;;;6731367;88;20660;-77
2021/03/26 23:35:13;;;;;;;4.82;2.55;;;11.50;99.90;;;;;;6722448;88;20200;-76
2021/03/26 23:45:29;;;;;;;7.78;2.30;;;11.80;99.80;;;;;;6721336;88;20268;-77
2021/03/26 23:55:34;;;;;;;3.93;2.00;;;11.90;99.90;;;;;;6722350;88;20202;-77
